Time;durP1;ratioP1;P1;durP2;ratioP2;P2;SDS_P1;SDS_P2;PMS_P1;PMS_P2;Temp;Humidity;BMP_temperature;BMP_pressure;BME280_temperature;BME280_humidity;BME280_pressure;Samples;Min_cycle;Max_cycle;Signal;HPM_P1;HPM_P2
2021/01/27 00:02:25;;;;;;;9.20;4.57;;;;;;;;;;4407150;32;20164;-75
2021/01/27 00:04:51;;;;;;;8.60;5.03;;;;;;;;;;4393277;32;20170;-75
2021/01/27 00:07:23;;;;;;;9.53;5.40;;;;;;;;;;4401626;32;20181;-75
2021/01/27 00:09:59;;;;;;;8.63;5.77;;;;;;;;;;4392009;32;20134;-74
2021/01/27 00:12:45;;;;;;;7.37;4.87;;;;;;;;;;4391908;32;20154;-75
2021/01/27 00:15:20;;;;;;;9.93;5.50;;;;;;;;;;4391388;32;20169;-75
2021/01/27 00:17:48;;;;;;;7.47;4.70;;;;;;;;;;4378216;32;20189;-75
2021/01/27 00:20:14;;;;;;;10.30;5.40;;;;;;;;;;4391720;32;20165;-75
2021/01/27 00:22:40;;;;;;;7.23;4.63;;;;;;;;;;4377727;32;20244;-75
2021/01/27 00:25:32;;;;;;;7.77;4.80;;;;;;;;;;4378114;32;20167;-75
2021/01/27 00:28:01;;;;;;;13.60;5.50;;;;;;;;;;4393419;32;20150;-75
2021/01/27 00:33:15;;;;;;;11.73;5.70;;;;;;;;;;4345025;33;20167;-75
2021/01/27 00:35:42;;;;;;;8.30;5.17;;;;;;;;;;4396555;32;20162;-76
2021/01/27 00:39:11;;;;;;;9.60;5.50;;;;;;;;;;4406520;32;20153;-75
2021/01/27 00:41:20;;;;;;;9.03;5.10;;;;;;;;;;4393060;32;20296;-75
2021/01/27 00:43:46;;;;;;;8.60;4.80;;;;;;;;;;4390757;32;22045;-75
2021/01/27 00:48:57;;;;;;;9.03;5.10;;;;;;;;;;4329695;33;20144;-75
2021/01/27 00:51:29;;;;;;;9.77;5.10;;;;;;;;;;4381505;32;20180;-75
2021/01/27 00:54:05;;;;;;;8.87;5.33;;;;;;;;;;4377573;32;20185;-75
2021/01/27 00:56:30;;;;;;;9.47;5.80;;;;;;;;;;4377994;32;20166;-75
2021/01/27 00:58:55;;;;;;;10.47;6.33;;;;;;;;;;4377303;32;20634;-75
2021/01/27 01:01:21;;;;;;;11.57;5.93;;;;;;;;;;4376968;32;20170;-75
2021/01/27 01:03:46;;;;;;;9.63;6.07;;;;;;;;;;4391214;32;20176;-75
2021/01/27 01:06:11;;;;;;;10.47;6.33;;;;;;;;;;4377030;32;20560;-75
2021/01/27 01:08:46;;;;;;;;;;;;;;;;;;;;;
2021/01/27 01:11:13;;;;;;;10.60;6.70;;;;;;;;;;4402434;32;20637;-75
2021/01/27 01:14:02;;;;;;;12.43;7.43;;;;;;;;;;4392856;32;20189;-75
2021/01/27 01:16:27;;;;;;;14.20;7.40;;;;;;;;;;4406104;32;20170;-75
2021/01/27 01:18:52;;;;;;;15.23;9.17;;;;;;;;;;4405813;32;20578;-75
2021/01/27 01:21:23;;;;;;;15.27;9.43;;;;;;;;;;4405804;32;20153;-75
2021/01/27 01:23:52;;;;;;;18.57;9.97;;;;;;;;;;4405904;32;20142;-75
2021/01/27 01:26:38;;;;;;;17.47;11.00;;;;;;;;;;4392235;32;20276;-75
2021/01/27 01:32:30;;;;;;;18.23;11.17;;;;;;;;;;4405736;32;20687;-75
2021/01/27 01:34:56;;;;;;;20.43;12.27;;;;;;;;;;4381769;32;20208;-75
2021/01/27 01:37:23;;;;;;;22.17;13.40;;;;;;;;;;4406551;32;20135;-75
2021/01/27 01:40:17;;;;;;;;;;;;;;;;;;;;;
2021/01/27 01:42:45;;;;;;;23.57;12.73;;;;;;;;;;4405415;32;20176;-75
2021/01/27 01:45:20;;;;;;;16.63;11.33;;;;;;;;;;4392150;32;20164;-75
2021/01/27 01:47:45;;;;;;;20.30;13.13;;;;;;;;;;4406288;32;20203;-75
2021/01/27 01:50:10;;;;;;;23.30;12.57;;;;;;;;;;4403693;32;20138;-75
2021/01/27 01:52:41;;;;;;;19.00;11.47;;;;;;;;;;4376912;32;20200;-75
2021/01/27 01:55:27;;;;;;;17.47;11.57;;;;;;;;;;4390759;32;20181;-76
2021/01/27 01:58:08;;;;;;;18.00;10.77;;;;;;;;;;4389704;32;20173;-75
2021/01/27 02:00:34;;;;;;;18.43;10.90;;;;;;;;;;4376854;32;20158;-75
2021/01/27 02:03:00;;;;;;;18.33;11.57;;;;;;;;;;4376378;32;20181;-75
2021/01/27 02:05:28;;;;;;;18.27;12.23;;;;;;;;;;4376398;32;20197;-75
2021/01/27 02:08:06;;;;;;;18.93;12.70;;;;;;;;;;4390316;32;20173;-75
2021/01/27 02:10:31;;;;;;;19.67;13.63;;;;;;;;;;4376561;32;20196;-75
2021/01/27 02:13:16;;;;;;;20.47;13.60;;;;;;;;;;4394558;32;20157;-75
2021/01/27 02:15:56;;;;;;;20.23;13.60;;;;;;;;;;4391357;32;20177;-75
2021/01/27 02:18:33;;;;;;;20.87;13.30;;;;;;;;;;4405821;32;20142;-75
2021/01/27 02:21:39;;;;;;;21.30;12.93;;;;;;;;;;4391496;32;20166;-75
2021/01/27 02:24:37;;;;;;;22.70;12.10;;;;;;;;;;4405047;32;20215;-75
2021/01/27 02:27:28;;;;;;;17.40;11.93;;;;;;;;;;4390999;32;20166;-75
2021/01/27 02:30:06;;;;;;;;;;;;;;;;;;;;;
2021/01/27 02:32:38;;;;;;;19.40;11.40;;;;;;;;;;4390674;32;20499;-75
2021/01/27 02:35:06;;;;;;;16.17;10.30;;;;;;;;;;4405199;32;20154;-75
2021/01/27 02:37:47;;;;;;;;;;;;;;;;;;;;;
2021/01/27 02:40:18;;;;;;;14.83;10.33;;;;;;;;;;4405868;32;20189;-75
2021/01/27 02:42:46;;;;;;;13.97;9.77;;;;;;;;;;4383550;32;20170;-75
2021/01/27 02:45:21;;;;;;;13.30;10.07;;;;;;;;;;4376262;32;20165;-75
2021/01/27 02:48:14;;;;;;;15.17;10.77;;;;;;;;;;4390310;32;20168;-75
2021/01/27 02:50:49;;;;;;;15.33;9.93;;;;;;;;;;4390161;32;20537;-75
2021/01/27 02:53:19;;;;;;;14.67;9.10;;;;;;;;;;4390704;32;20153;-75
2021/01/27 02:55:48;;;;;;;13.03;7.87;;;;;;;;;;4375861;32;20178;-75
2021/01/27 02:58:17;;;;;;;15.60;9.60;;;;;;;;;;4390137;32;20176;-75
2021/01/27 03:00:45;;;;;;;14.30;9.87;;;;;;;;;;4376409;32;20167;-75
2021/01/27 03:03:16;;;;;;;12.63;8.53;;;;;;;;;;4376122;32;20186;-76
2021/01/27 03:05:45;;;;;;;14.77;10.30;;;;;;;;;;4378783;32;20162;-75
2021/01/27 03:08:32;;;;;;;14.10;9.93;;;;;;;;;;4379164;32;20162;-75
2021/01/27 03:11:02;;;;;;;13.30;9.97;;;;;;;;;;4392895;32;20564;-75
2021/01/27 03:13:27;;;;;;;16.63;10.57;;;;;;;;;;4378637;32;20201;-75
2021/01/27 03:15:55;;;;;;;13.63;9.73;;;;;;;;;;4378796;32;20182;-75
2021/01/27 03:18:25;;;;;;;14.30;10.20;;;;;;;;;;4393011;32;20463;-75
2021/01/27 03:24:16;;;;;;;12.83;9.00;;;;;;;;;;4324820;33;20218;-75
2021/01/27 03:26:58;;;;;;;13.60;9.67;;;;;;;;;;4333097;33;20174;-74
2021/01/27 03:29:23;;;;;;;11.57;8.23;;;;;;;;;;4398748;32;20192;-75
2021/01/27 03:31:51;;;;;;;10.70;8.53;;;;;;;;;;4407593;32;20139;-74
2021/01/27 03:34:23;;;;;;;10.47;7.90;;;;;;;;;;4393544;32;20714;-75
2021/01/27 03:37:03;;;;;;;9.80;7.50;;;;;;;;;;4407370;32;20138;-75
2021/01/27 03:39:32;;;;;;;12.07;8.53;;;;;;;;;;4393602;32;20199;-74
2021/01/27 03:42:03;;;;;;;11.80;8.63;;;;;;;;;;4393621;32;20174;-74
2021/01/27 03:44:33;;;;;;;11.43;8.53;;;;;;;;;;4393666;32;20158;-75
2021/01/27 03:47:10;;;;;;;13.30;9.13;;;;;;;;;;4407193;32;20146;-75
2021/01/27 03:49:58;;;;;;;14.67;9.43;;;;;;;;;;4407561;32;20173;-75
2021/01/27 03:52:28;;;;;;;13.70;9.37;;;;;;;;;;4378678;32;20159;-75
2021/01/27 03:54:58;;;;;;;18.10;9.30;;;;;;;;;;4378220;32;20170;-75
2021/01/27 03:57:25;;;;;;;15.23;10.17;;;;;;;;;;4378577;32;20155;-74
2021/01/27 03:59:51;;;;;;;14.43;10.57;;;;;;;;;;4392444;32;20150;-75
2021/01/27 04:02:18;;;;;;;16.67;11.43;;;;;;;;;;4392153;32;20197;-75
2021/01/27 04:04:44;;;;;;;16.97;11.13;;;;;;;;;;4393920;32;20139;-75
2021/01/27 04:07:09;;;;;;;16.73;11.30;;;;;;;;;;4407355;32;20232;-76
2021/01/27 04:09:37;;;;;;;15.27;10.60;;;;;;;;;;4407338;32;20535;-75
2021/01/27 04:12:03;;;;;;;17.70;11.70;;;;;;;;;;4406820;32;20168;-75
2021/01/27 04:14:37;;;;;;;17.93;12.17;;;;;;;;;;4407573;32;20201;-74
2021/01/27 04:17:13;;;;;;;17.47;11.70;;;;;;;;;;4406986;32;20564;-74
2021/01/27 04:19:38;;;;;;;18.87;11.80;;;;;;;;;;4392785;32;20161;-74
2021/01/27 04:22:45;;;;;;;;;;;;;;;;;;;;;
2021/01/27 04:34:36;;;;;;;;;;;;;;;;;;;;;
2021/01/27 04:37:15;;;;;;;17.50;12.00;;;;;;;;;;4356924;33;20143;-75
2021/01/27 04:43:03;;;;;;;25.20;13.13;;;;;;;;;;4330079;33;20211;-74
2021/01/27 04:45:47;;;;;;;;;;;;;;;;;;;;;
2021/01/27 04:48:19;;;;;;;18.83;12.50;;;;;;;;;;4384018;32;20151;-75
2021/01/27 04:54:14;;;;;;;13.37;10.03;;;;;;;;;;4377836;32;20142;-75
2021/01/27 04:56:58;;;;;;;15.33;9.97;;;;;;;;;;4389846;32;20162;-75
2021/01/27 04:59:36;;;;;;;15.07;9.90;;;;;;;;;;4395356;32;20161;-75
2021/01/27 05:02:30;;;;;;;14.07;9.73;;;;;;;;;;4406744;32;20152;-75
2021/01/27 05:05:20;;;;;;;13.97;8.80;;;;;;;;;;4385549;32;20216;-75
2021/01/27 05:08:01;;;;;;;12.07;7.53;;;;;;;;;;4391058;32;20177;-75
2021/01/27 05:17:17;;;;;;;10.77;7.77;;;;;;;;;;4344159;33;20147;-75
2021/01/27 05:19:49;;;;;;;10.30;8.00;;;;;;;;;;4300396;33;20163;-75
2021/01/27 05:22:14;;;;;;;13.20;8.30;;;;;;;;;;4361021;32;20162;-74
2021/01/27 05:24:41;;;;;;;10.43;7.60;;;;;;;;;;4391092;32;20214;-75
2021/01/27 05:27:25;;;;;;;9.90;7.70;;;;;;;;;;4390039;32;20185;-75
2021/01/27 05:30:00;;;;;;;10.93;7.73;;;;;;;;;;4398237;32;20213;-74
2021/01/27 05:32:45;;;;;;;12.80;8.27;;;;;;;;;;4377903;32;20220;-75
2021/01/27 05:35:21;;;;;;;11.70;7.70;;;;;;;;;;4391001;32;20460;-74
2021/01/27 05:37:46;;;;;;;9.60;6.47;;;;;;;;;;4377164;32;20165;-74
2021/01/27 05:40:26;;;;;;;8.83;6.33;;;;;;;;;;4390921;32;20647;-76
2021/01/27 05:42:51;;;;;;;8.83;6.47;;;;;;;;;;4390949;32;20198;-75
2021/01/27 05:45:36;;;;;;;8.33;6.50;;;;;;;;;;4390292;32;20196;-74
2021/01/27 05:48:20;;;;;;;8.60;6.13;;;;;;;;;;4390566;32;20138;-74
2021/01/27 05:50:46;;;;;;;8.60;5.77;;;;;;;;;;4405908;32;20126;-74
2021/01/27 05:53:13;;;;;;;8.50;6.67;;;;;;;;;;4403167;32;20178;-76
2021/01/27 05:55:57;;;;;;;8.90;6.47;;;;;;;;;;4389092;32;20180;-75
2021/01/27 05:58:23;;;;;;;7.40;5.67;;;;;;;;;;4391135;32;20181;-74
2021/01/27 06:00:48;;;;;;;10.10;6.80;;;;;;;;;;4405002;32;20134;-75
2021/01/27 06:03:20;;;;;;;8.43;6.10;;;;;;;;;;4405381;32;20511;-72
2021/01/27 06:05:45;;;;;;;9.03;6.23;;;;;;;;;;4405357;32;20199;-76
2021/01/27 06:08:21;;;;;;;9.00;6.17;;;;;;;;;;4391184;32;20571;-74
2021/01/27 06:10:50;;;;;;;8.07;6.00;;;;;;;;;;4405217;32;20248;-75
2021/01/27 06:13:16;;;;;;;8.63;6.37;;;;;;;;;;4391242;32;20193;-74
2021/01/27 06:15:45;;;;;;;8.40;6.30;;;;;;;;;;4391571;32;20184;-75
2021/01/27 06:21:39;;;;;;;10.30;7.17;;;;;;;;;;4395843;32;20624;-76
2021/01/27 06:24:15;;;;;;;8.63;6.47;;;;;;;;;;4375708;32;20201;-75
2021/01/27 06:26:58;;;;;;;8.80;6.60;;;;;;;;;;4390476;32;20187;-76
2021/01/27 06:30:03;;;;;;;10.17;7.10;;;;;;;;;;4389578;32;20203;-74
2021/01/27 06:32:46;;;;;;;11.33;7.63;;;;;;;;;;4389540;32;20185;-75
2021/01/27 06:35:16;;;;;;;11.80;8.07;;;;;;;;;;4384651;32;20192;-76
2021/01/27 06:37:47;;;;;;;12.20;7.67;;;;;;;;;;4405070;32;20145;-72
2021/01/27 06:40:20;;;;;;;12.23;7.93;;;;;;;;;;4392881;32;20154;-76
2021/01/27 06:43:04;;;;;;;11.73;7.80;;;;;;;;;;4394360;32;20215;-75
2021/01/27 06:45:30;;;;;;;12.53;7.60;;;;;;;;;;4393990;32;20157;-76
2021/01/27 06:48:08;;;;;;;11.00;7.63;;;;;;;;;;4386823;32;20252;-74
2021/01/27 06:50:40;;;;;;;11.07;7.83;;;;;;;;;;4409895;32;20130;-75
2021/01/27 06:53:24;;;;;;;13.13;8.63;;;;;;;;;;4408412;32;20606;-75
2021/01/27 06:55:49;;;;;;;11.67;8.03;;;;;;;;;;4394181;32;20162;-75
2021/01/27 06:58:15;;;;;;;13.30;8.87;;;;;;;;;;4407546;32;20234;-75
2021/01/27 07:00:43;;;;;;;13.93;9.23;;;;;;;;;;4393745;32;20641;-75
2021/01/27 07:03:20;;;;;;;13.97;7.83;;;;;;;;;;4393586;32;20162;-75
2021/01/27 07:05:48;;;;;;;12.73;8.83;;;;;;;;;;4393883;32;20303;-76
2021/01/27 07:08:33;;;;;;;14.67;9.67;;;;;;;;;;4393933;32;20161;-74
2021/01/27 07:11:24;;;;;;;14.80;9.77;;;;;;;;;;4393903;32;20188;-75
2021/01/27 07:13:49;;;;;;;14.27;9.63;;;;;;;;;;4391865;32;20165;-73
2021/01/27 07:17:22;;;;;;;16.10;10.23;;;;;;;;;;4405152;32;20188;-75
2021/01/27 07:19:49;;;;;;;20.30;11.50;;;;;;;;;;4391387;32;20288;-75
2021/01/27 07:22:21;;;;;;;21.97;12.00;;;;;;;;;;4392807;32;20131;-73
2021/01/27 07:24:46;;;;;;;22.70;12.80;;;;;;;;;;4386505;32;20142;-77
2021/01/27 07:27:21;;;;;;;21.53;12.87;;;;;;;;;;4403808;32;20146;-74
2021/01/27 07:30:04;;;;;;;25.80;14.27;;;;;;;;;;4407938;32;20165;-74
2021/01/27 07:32:45;;;;;;;26.63;15.70;;;;;;;;;;4393303;32;20162;-75
2021/01/27 07:35:13;;;;;;;25.17;14.87;;;;;;;;;;4399083;32;20142;-74
2021/01/27 07:37:47;;;;;;;30.23;16.83;;;;;;;;;;4378127;32;20476;-74
2021/01/27 07:40:27;;;;;;;36.17;17.87;;;;;;;;;;4378156;32;20158;-74
2021/01/27 07:42:55;;;;;;;30.40;16.40;;;;;;;;;;4389853;32;20166;-74
2021/01/27 07:45:22;;;;;;;32.10;18.17;;;;;;;;;;4392765;32;20161;-74
2021/01/27 07:47:54;;;;;;;36.63;18.83;;;;;;;;;;4380361;32;20149;-72
2021/01/27 07:53:49;;;;;;;40.30;19.67;;;;;;;;;;4380249;32;20684;-74
2021/01/27 07:56:44;;;;;;;35.00;17.27;;;;;;;;;;4408395;32;20220;-74
2021/01/27 08:00:01;;;;;;;42.20;20.67;;;;;;;;;;4377328;32;20633;-75
2021/01/27 08:03:14;;;;;;;37.27;18.47;;;;;;;;;;4344671;33;20218;-75
2021/01/27 08:05:15;;;;;;;40.47;21.23;;;;;;;;;;4338657;33;20174;-75
2021/01/27 08:08:05;;;;;;;34.27;18.13;;;;;;;;;;4344321;33;20222;-75
2021/01/27 08:10:34;;;;;;;35.87;19.33;;;;;;;;;;4357554;32;20243;-74
2021/01/27 08:13:20;;;;;;;37.23;19.67;;;;;;;;;;4381540;32;20166;-74
2021/01/27 08:16:00;;;;;;;38.30;19.43;;;;;;;;;;4394549;32;20633;-75
2021/01/27 08:18:39;;;;;;;37.60;19.63;;;;;;;;;;4405924;32;20169;-74
2021/01/27 08:21:33;;;;;;;;;;;;;;;;;;;;;
2021/01/27 08:25:01;;;;;;;34.00;19.03;;;;;;;;;;4406961;32;20157;-76
2021/01/27 08:27:11;;;;;;;31.23;16.63;;;;;;;;;;4400886;32;20200;-74
2021/01/27 08:29:40;;;;;;;31.20;16.40;;;;;;;;;;4406504;32;20173;-75
2021/01/27 08:32:24;;;;;;;32.30;17.10;;;;;;;;;;4406025;32;20221;-75
2021/01/27 08:34:50;;;;;;;31.37;16.83;;;;;;;;;;4414443;32;20232;-74
2021/01/27 08:37:20;;;;;;;28.43;16.40;;;;;;;;;;4409749;32;20173;-75
2021/01/27 08:40:07;;;;;;;28.17;15.40;;;;;;;;;;4390914;32;20223;-74
2021/01/27 08:42:51;;;;;;;30.87;16.10;;;;;;;;;;4416001;32;20145;-74
2021/01/27 08:48:49;;;;;;;31.60;17.30;;;;;;;;;;4358857;32;20159;-75
2021/01/27 08:51:42;;;;;;;30.80;16.67;;;;;;;;;;4346070;33;20508;-76
2021/01/27 08:54:34;;;;;;;;;;;;;;;;;;;;;
2021/01/27 08:57:19;;;;;;;29.77;16.90;;;;;;;;;;4405861;32;20539;-74
2021/01/27 09:00:00;;;;;;;29.23;16.97;;;;;;;;;;4405390;32;20161;-75
2021/01/27 09:05:28;;;;;;;36.30;19.07;;;;;;;;;;4405649;32;20141;-75
2021/01/27 09:07:59;;;;;;;35.13;18.30;;;;;;;;;;4386080;32;20525;-75
2021/01/27 09:10:50;;;;;;;37.10;19.90;;;;;;;;;;4390709;32;20161;-74
2021/01/27 09:13:38;;;;;;;37.70;19.87;;;;;;;;;;4390361;32;20604;-74
2021/01/27 09:16:25;;;;;;;38.67;20.17;;;;;;;;;;4390575;32;20183;-76
2021/01/27 09:19:08;;;;;;;41.27;20.50;;;;;;;;;;4390386;32;20444;-74
2021/01/27 09:21:36;;;;;;;39.60;21.27;;;;;;;;;;4391074;32;20165;-75
2021/01/27 09:24:08;;;;;;;41.50;19.63;;;;;;;;;;4413751;32;20556;-72
2021/01/27 09:26:36;;;;;;;42.60;19.53;;;;;;;;;;4419778;32;20134;-75
2021/01/27 09:29:07;;;;;;;37.03;19.43;;;;;;;;;;4408049;32;20532;-74
2021/01/27 09:31:42;;;;;;;43.07;21.43;;;;;;;;;;4390022;32;20165;-75
2021/01/27 09:34:15;;;;;;;38.63;18.73;;;;;;;;;;4390295;32;20188;-74
2021/01/27 09:36:49;;;;;;;45.43;22.10;;;;;;;;;;4389973;32;20151;-75
2021/01/27 09:39:35;;;;;;;42.47;21.37;;;;;;;;;;4390056;32;20122;-75
2021/01/27 09:42:03;;;;;;;41.20;20.37;;;;;;;;;;4390070;32;20131;-75
2021/01/27 09:44:51;;;;;;;42.83;21.80;;;;;;;;;;4389628;32;20131;-76
2021/01/27 09:47:17;;;;;;;47.03;22.50;;;;;;;;;;4389638;32;20158;-75
2021/01/27 09:50:02;;;;;;;45.80;22.87;;;;;;;;;;4390623;32;20184;-75
2021/01/27 09:52:31;;;;;;;44.77;21.97;;;;;;;;;;4376043;32;20244;-74
2021/01/27 09:55:15;;;;;;;42.23;21.50;;;;;;;;;;4375942;32;20225;-76
2021/01/27 09:57:42;;;;;;;43.53;22.30;;;;;;;;;;4390171;32;20524;-76
2021/01/27 10:00:09;;;;;;;48.27;23.33;;;;;;;;;;4389598;32;20126;-76
2021/01/27 10:02:40;;;;;;;46.27;23.77;;;;;;;;;;4389758;32;20150;-75
2021/01/27 10:05:24;;;;;;;44.73;23.23;;;;;;;;;;4389719;32;20232;-73
2021/01/27 10:07:50;;;;;;;53.07;24.13;;;;;;;;;;4389301;32;20141;-74
2021/01/27 10:10:16;;;;;;;45.47;23.50;;;;;;;;;;4401225;32;20626;-72
2021/01/27 10:12:57;;;;;;;50.00;23.40;;;;;;;;;;4391377;32;20177;-75
2021/01/27 10:15:25;;;;;;;50.20;26.03;;;;;;;;;;4403936;32;20241;-75
2021/01/27 10:18:09;;;;;;;45.77;23.37;;;;;;;;;;4404347;32;20134;-75
2021/01/27 10:20:36;;;;;;;47.17;24.57;;;;;;;;;;4391114;32;20315;-75
2021/01/27 10:23:04;;;;;;;48.73;24.87;;;;;;;;;;4404846;32;20471;-73
2021/01/27 10:25:29;;;;;;;41.97;22.70;;;;;;;;;;4404475;32;20586;-72
2021/01/27 10:28:21;;;;;;;49.07;25.90;;;;;;;;;;4404170;32;20146;-74
2021/01/27 10:30:46;;;;;;;43.70;23.33;;;;;;;;;;4375264;32;20181;-75
2021/01/27 10:33:33;;;;;;;46.07;23.97;;;;;;;;;;4384968;32;20169;-75
2021/01/27 10:35:59;;;;;;;46.00;23.30;;;;;;;;;;4389130;32;20250;-69
2021/01/27 10:38:43;;;;;;;45.93;23.07;;;;;;;;;;4376830;32;20169;-75
2021/01/27 10:41:13;;;;;;;49.57;25.00;;;;;;;;;;4404064;32;20154;-75
2021/01/27 10:43:48;;;;;;;43.30;23.00;;;;;;;;;;4404304;32;20228;-75
2021/01/27 10:46:21;;;;;;;39.73;21.97;;;;;;;;;;4390560;32;20566;-76
2021/01/27 10:48:50;;;;;;;42.77;21.47;;;;;;;;;;4390491;32;20591;-75
2021/01/27 10:51:28;;;;;;;45.20;21.57;;;;;;;;;;4390836;32;20235;-74
2021/01/27 10:53:57;;;;;;;39.27;20.63;;;;;;;;;;4390671;32;20580;-75
2021/01/27 10:56:41;;;;;;;;;;;;;;;;;;;;;
2021/01/27 10:59:09;;;;;;;39.90;18.83;;;;;;;;;;4403670;32;20172;-74
2021/01/27 11:01:37;;;;;;;38.67;20.80;;;;;;;;;;4403971;32;20670;-75
2021/01/27 11:04:02;;;;;;;37.13;19.00;;;;;;;;;;4390060;32;20161;-75
2021/01/27 11:06:28;;;;;;;35.50;19.13;;;;;;;;;;4403876;32;20197;-75
2021/01/27 11:09:03;;;;;;;;;;;;;;;;;;;;;
2021/01/27 11:11:57;;;;;;;41.50;23.23;;;;;;;;;;4404813;32;20590;-75
2021/01/27 11:14:26;;;;;;;42.93;22.33;;;;;;;;;;4389894;32;20258;-74
2021/01/27 11:16:51;;;;;;;37.57;20.97;;;;;;;;;;4388431;32;20253;-74
2021/01/27 11:19:25;;;;;;;38.30;21.03;;;;;;;;;;4390586;32;20161;-73
2021/01/27 11:21:50;;;;;;;39.30;21.03;;;;;;;;;;4404440;32;20208;-74
2021/01/27 11:24:16;;;;;;;40.87;21.57;;;;;;;;;;4403725;32;20179;-74
2021/01/27 11:26:44;;;;;;;43.80;21.27;;;;;;;;;;4405506;32;20195;-75
2021/01/27 11:29:09;;;;;;;39.60;21.07;;;;;;;;;;4405850;32;20130;-76
2021/01/27 11:31:44;;;;;;;38.07;20.53;;;;;;;;;;4420148;32;20176;-75
2021/01/27 11:34:09;;;;;;;36.73;20.67;;;;;;;;;;4422200;32;20171;-71
2021/01/27 11:36:37;;;;;;;44.97;22.87;;;;;;;;;;4407752;32;20583;-75
2021/01/27 11:39:03;;;;;;;36.87;20.67;;;;;;;;;;4416153;32;20183;-74
2021/01/27 11:41:55;;;;;;;40.47;22.20;;;;;;;;;;4421991;32;20532;-75
2021/01/27 11:44:34;;;;;;;41.37;21.87;;;;;;;;;;4421723;32;20114;-74
2021/01/27 11:47:20;;;;;;;40.20;20.47;;;;;;;;;;4400658;32;20145;-74
2021/01/27 11:49:46;;;;;;;39.97;21.40;;;;;;;;;;4384973;32;20266;-73
2021/01/27 11:52:22;;;;;;;39.97;21.23;;;;;;;;;;4385064;32;20506;-74
2021/01/27 11:55:07;;;;;;;46.37;23.70;;;;;;;;;;4408126;32;20176;-74
2021/01/27 11:57:33;;;;;;;44.07;22.70;;;;;;;;;;4405867;32;20180;-74
2021/01/27 11:59:58;;;;;;;40.00;21.77;;;;;;;;;;4399573;32;20221;-75
2021/01/27 12:02:24;;;;;;;42.67;22.07;;;;;;;;;;4391307;32;20169;-75
2021/01/27 12:05:06;;;;;;;40.50;22.13;;;;;;;;;;4392334;32;20131;-76
2021/01/27 12:07:31;;;;;;;35.93;20.83;;;;;;;;;;4403082;32;20150;-74
2021/01/27 12:09:57;;;;;;;35.27;19.13;;;;;;;;;;4392300;32;20154;-75
2021/01/27 12:12:22;;;;;;;34.90;19.77;;;;;;;;;;4392475;32;20195;-75
2021/01/27 12:14:50;;;;;;;33.83;19.20;;;;;;;;;;4392822;32;20177;-76
2021/01/27 12:17:19;;;;;;;32.90;16.73;;;;;;;;;;4392248;32;20423;-74
2021/01/27 12:19:47;;;;;;;20.80;11.43;;;;;;;;;;4405690;32;20166;-75
2021/01/27 12:22:55;;;;;;;;;;;;;;;;;;;;;
2021/01/27 12:25:58;;;;;;;16.63;9.20;;;;;;;;;;4389285;32;20178;-74
2021/01/27 12:28:42;;;;;;;15.23;7.97;;;;;;;;;;4415343;32;20145;-74
2021/01/27 12:33:53;;;;;;;16.00;8.63;;;;;;;;;;4374139;32;20521;-75
2021/01/27 12:36:21;;;;;;;22.05;10.15;;;;;;;;;;4390480;32;20177;-75
2021/01/27 12:39:17;;;;;;;23.60;10.50;;;;;;;;;;4391653;32;20184;-74
2021/01/27 12:42:27;;;;;;;23.83;11.93;;;;;;;;;;4396148;32;20201;-75
2021/01/27 12:48:19;;;;;;;;;;;;;;;;;;;;;
2021/01/27 12:51:21;;;;;;;;;;;;;;;;;;;;;
2021/01/27 12:53:49;;;;;;;26.33;13.23;;;;;;;;;;4344746;32;20169;-74
2021/01/27 12:56:15;;;;;;;24.93;12.20;;;;;;;;;;4405757;32;20540;-74
2021/01/27 12:58:49;;;;;;;26.50;13.20;;;;;;;;;;4406232;32;20160;-74
2021/01/27 13:04:52;;;;;;;27.57;13.37;;;;;;;;;;4343334;33;20309;-74
2021/01/27 13:07:31;;;;;;;23.63;13.03;;;;;;;;;;4341532;33;20148;-75
2021/01/27 13:09:56;;;;;;;24.73;12.63;;;;;;;;;;4343883;33;20127;-74
2021/01/27 13:12:51;;;;;;;22.53;12.47;;;;;;;;;;4364261;32;20207;-75
2021/01/27 13:16:13;;;;;;;;;;;;;;;;;;;;;
2021/01/27 13:19:04;;;;;;;25.17;12.50;;;;;;;;;;4332935;32;20514;-74
2021/01/27 13:21:29;;;;;;;25.23;11.33;;;;;;;;;;4374198;32;20182;-75
2021/01/27 13:23:54;;;;;;;24.13;11.90;;;;;;;;;;4392026;32;20542;-75
2021/01/27 13:26:49;;;;;;;;;;;;;;;;;;;;;
2021/01/27 13:29:31;;;;;;;22.02;10.88;;;;;;;;;;4353843;32;20167;-74
2021/01/27 13:34:40;;;;;;;19.93;9.47;;;;;;;;;;4398020;32;20173;-74
2021/01/27 13:39:54;;;;;;;19.90;9.10;;;;;;;;;;4374181;32;20170;-74
2021/01/27 13:42:35;;;;;;;15.98;8.45;;;;;;;;;;4389774;32;20169;-74
2021/01/27 13:45:31;;;;;;;17.62;8.70;;;;;;;;;;4390274;32;20556;-75
2021/01/27 13:54:17;;;;;;;13.13;7.20;;;;;;;;;;4342476;33;20186;-74
2021/01/27 13:56:51;;;;;;;14.80;7.67;;;;;;;;;;4342708;33;20147;-74
2021/01/27 13:59:41;;;;;;;17.75;7.65;;;;;;;;;;4342498;33;20185;-75
2021/01/27 14:02:29;;;;;;;17.07;6.57;;;;;;;;;;4342840;33;20195;-75
2021/01/27 14:11:57;;;;;;;11.90;6.00;;;;;;;;;;4269760;33;20165;-75
2021/01/27 14:14:38;;;;;;;14.10;6.10;;;;;;;;;;4260227;33;20627;-74
2021/01/27 14:17:26;;;;;;;12.40;5.33;;;;;;;;;;4269746;33;20169;-74
2021/01/27 14:20:01;;;;;;;;;;;;;;;;;;;;;
2021/01/27 14:22:45;;;;;;;14.75;6.47;;;;;;;;;;4268643;33;20628;-74
2021/01/27 14:25:22;;;;;;;;;;;;;;;;;;;;;
2021/01/27 14:27:51;;;;;;;18.63;9.40;;;;;;;;;;4261901;33;20204;-76
2021/01/27 14:30:55;;;;;;;20.90;10.23;;;;;;;;;;4270093;33;20199;-73
2021/01/27 14:37:10;;;;;;;27.40;12.13;;;;;;;;;;4281862;33;20242;-76
2021/01/27 14:39:46;;;;;;;;;;;;;;;;;;;;;
2021/01/27 14:42:22;;;;;;;27.33;11.10;;;;;;;;;;4291256;33;20148;-74
2021/01/27 14:45:00;;;;;;;28.33;11.23;;;;;;;;;;4357190;32;20173;-74
2021/01/27 14:47:56;;;;;;;;;;;;;;;;;;;;;
2021/01/27 14:50:31;;;;;;;;;;;;;;;;;;;;;
2021/01/27 14:53:24;;;;;;;25.17;11.70;;;;;;;;;;4388966;32;20137;-76
2021/01/27 14:55:55;;;;;;;32.47;11.82;;;;;;;;;;4389095;32;20169;-75
2021/01/27 14:58:27;;;;;;;31.60;12.30;;;;;;;;;;4375404;32;20158;-75
2021/01/27 15:00:57;;;;;;;28.87;11.90;;;;;;;;;;4390476;32;20157;-74
2021/01/27 15:03:45;;;;;;;24.20;10.63;;;;;;;;;;4391492;32;20187;-75
2021/01/27 15:06:15;;;;;;;30.53;12.17;;;;;;;;;;4391734;32;20205;-74
2021/01/27 15:08:51;;;;;;;;;;;;;;;;;;;;;
2021/01/27 15:11:19;;;;;;;31.60;11.82;;;;;;;;;;4399732;32;20220;-74
2021/01/27 15:13:44;;;;;;;28.23;11.97;;;;;;;;;;4390924;32;20150;-74
2021/01/27 15:16:13;;;;;;;29.53;11.90;;;;;;;;;;4397579;32;20192;-74
2021/01/27 15:18:47;;;;;;;27.10;11.20;;;;;;;;;;4407164;32;20554;-74
2021/01/27 15:21:18;;;;;;;25.23;10.87;;;;;;;;;;4410697;32;20153;-74
2021/01/27 15:23:52;;;;;;;26.17;10.37;;;;;;;;;;4406534;32;20142;-74
2021/01/27 15:29:33;;;;;;;24.97;9.40;;;;;;;;;;4329629;33;20170;-74
2021/01/27 15:32:07;;;;;;;21.70;9.23;;;;;;;;;;4330685;33;20148;-74
2021/01/27 15:34:32;;;;;;;24.03;9.70;;;;;;;;;;4329654;33;20148;-74
2021/01/27 15:37:10;;;;;;;24.87;9.57;;;;;;;;;;4330150;33;20177;-74
2021/01/27 15:39:40;;;;;;;23.00;8.77;;;;;;;;;;4403497;32;20154;-74
2021/01/27 15:42:51;;;;;;;21.13;9.10;;;;;;;;;;4406581;32;20174;-74
2021/01/27 15:44:55;;;;;;;20.70;9.27;;;;;;;;;;4395491;32;20235;-75
2021/01/27 15:50:15;;;;;;;24.87;9.03;;;;;;;;;;4407140;32;20491;-75
2021/01/27 15:53:00;;;;;;;;;;;;;;;;;;;;;
2021/01/27 15:55:29;;;;;;;22.80;10.73;;;;;;;;;;4391400;32;20575;-75
2021/01/27 15:58:04;;;;;;;23.03;9.70;;;;;;;;;;4410583;32;20169;-75
2021/01/27 16:00:32;;;;;;;27.97;10.30;;;;;;;;;;4421990;32;20126;-75
2021/01/27 16:02:59;;;;;;;25.93;11.03;;;;;;;;;;4407001;32;20203;-75
2021/01/27 16:05:38;;;;;;;27.23;10.67;;;;;;;;;;4392559;32;20165;-75
2021/01/27 16:08:03;;;;;;;28.53;11.27;;;;;;;;;;4392720;32;20188;-74
2021/01/27 16:10:29;;;;;;;30.05;11.23;;;;;;;;;;4407712;32;20173;-75
2021/01/27 16:12:56;;;;;;;35.17;12.23;;;;;;;;;;4407286;32;20154;-75
2021/01/27 16:15:44;;;;;;;31.93;11.37;;;;;;;;;;4420690;32;20149;-75
2021/01/27 16:18:10;;;;;;;28.80;12.83;;;;;;;;;;4421231;32;20204;-74
2021/01/27 16:20:35;;;;;;;38.90;12.07;;;;;;;;;;4394513;32;20165;-73
2021/01/27 16:23:00;;;;;;;31.97;12.30;;;;;;;;;;4382586;32;20292;-74
2021/01/27 16:25:34;;;;;;;37.03;12.57;;;;;;;;;;4406022;32;20219;-75
2021/01/27 16:28:09;;;;;;;37.03;12.75;;;;;;;;;;4412363;32;20157;-74
2021/01/27 16:30:35;;;;;;;42.00;13.83;;;;;;;;;;4407293;32;20330;-75
2021/01/27 16:33:00;;;;;;;49.30;14.07;;;;;;;;;;4411337;32;20587;-75
2021/01/27 16:35:46;;;;;;;38.83;14.57;;;;;;;;;;4405639;32;20177;-74
2021/01/27 16:38:27;;;;;;;47.58;16.30;;;;;;;;;;4392675;32;20196;-75
2021/01/27 16:40:52;;;;;;;48.80;15.70;;;;;;;;;;4378533;32;20169;-75
2021/01/27 16:43:18;;;;;;;43.97;16.27;;;;;;;;;;4412166;32;20177;-75
2021/01/27 16:45:53;;;;;;;49.42;15.82;;;;;;;;;;4415355;32;20222;-75
2021/01/27 16:48:53;;;;;;;54.27;18.23;;;;;;;;;;4419180;32;20168;-75
2021/01/27 16:51:48;;;;;;;47.67;16.17;;;;;;;;;;4368928;32;20197;-75
2021/01/27 16:54:19;;;;;;;48.77;16.27;;;;;;;;;;4418312;32;20249;-75
2021/01/27 16:56:56;;;;;;;45.47;15.97;;;;;;;;;;4421206;32;20183;-74
2021/01/27 16:59:35;;;;;;;47.17;16.70;;;;;;;;;;4408076;32;20198;-73
2021/01/27 17:02:00;;;;;;;49.50;16.83;;;;;;;;;;4405769;32;20146;-74